Home   Weather   Latvia   Riga   Past weeks
Flag for Latvia

Past Weather in Riga, Latvia — Yesterday and Last 2 Weeks

Currently: 63 °F. Clear. (Weather station: Riga Airport, Latvia). See more current weather

Past Weather in Riga — Graph

°F

Riga Temperature Yesterday

Maximum temperature yesterday: 77 °F (at 3:20 pm)
Minimum temperature yesterday: 55 °F (at 5:20 am)
Average temperature yesterday: 68 °F

High & Low Weather Summary for the Past Weeks

 TemperatureHumidityPressure
High77 °F (May 18, 3:50 pm)100% (May 8, 4:20 am)30.36 "Hg (May 8, 4:20 am)
Low34 °F (May 13, 1:20 am)24% (May 12, 5:50 pm)29.89 "Hg (May 19, 3:50 pm)
Average55 °F67%30.13 "Hg
* Reported May 8 1:20 am — May 23 1:50 am, Riga. Weather by CustomWeather, © 2024

Note: Actual official high and low records may vary slightly from our data, if they occured in-between our weather recording intervals... More about our weather records

Riga Weather History for the Previous 24 Hours

Scroll right to see more
 ConditionsComfort  
Time TempWeatherWind HumidityBarometerVisibility
1:50 am
Thu, May 23
64 °FPassing clouds.8 mph43%30.12 "HgN/A
1:20 am64 °FClear.7 mph43%30.12 "Hg10 mi
12:50 am64 °FClear.8 mph43%30.12 "Hg10 mi
12:20 am66 °FPassing clouds.8 mph37%30.12 "HgN/A
11:20 pm
Wed, May 22
66 °FClear.7 mph37%30.09 "Hg10 mi
10:50 pm68 °FPassing clouds.7 mph35%30.09 "HgN/A
10:20 pm68 °FClear.7 mph35%30.09 "Hg10 mi
9:50 pm70 °FPassing clouds.7 mph33%30.09 "HgN/A
9:20 pm72 °FPassing clouds.10 mph33%30.07 "HgN/A
8:50 pm72 °FSunny.13 mph33%30.07 "Hg10 mi
7:50 pm73 °FSunny.12 mph33%30.07 "Hg10 mi
7:20 pm75 °FPassing clouds.13 mph31%30.07 "HgN/A
6:50 pm75 °FSunny.13 mph34%30.07 "Hg10 mi
6:20 pm77 °FPassing clouds.10 mph32%30.07 "HgN/A
5:20 pm77 °FPassing clouds.12 mph32%30.07 "HgN/A
4:50 pm77 °FSunny.14 mph32%30.07 "Hg10 mi
4:20 pm77 °FPassing clouds.10 mph34%30.07 "HgN/A
3:50 pm77 °FPassing clouds.12 mph32%30.09 "HgN/A
3:20 pm77 °FPassing clouds.12 mph32%30.09 "HgN/A
2:50 pm75 °FPassing clouds.10 mph34%30.09 "HgN/A
2:20 pm75 °FPassing clouds.10 mph31%30.09 "HgN/A
1:50 pm75 °FPassing clouds.10 mph31%30.12 "HgN/A
1:20 pm73 °FPassing clouds.9 mph31%30.12 "HgN/A
12:50 pm73 °FPassing clouds.12 mph33%30.12 "HgN/A
12:20 pm73 °FPassing clouds.12 mph31%30.12 "HgN/A
11:50 am72 °FPassing clouds.12 mph33%30.12 "HgN/A
10:50 am70 °FPassing clouds.10 mph33%30.12 "HgN/A
10:20 am68 °FPassing clouds.10 mph33%30.15 "HgN/A
9:50 am66 °FPassing clouds.10 mph37%30.15 "HgN/A
9:20 am64 °FSunny.10 mph37%30.15 "Hg10 mi
8:50 am63 °FPassing clouds.8 mph42%30.12 "HgN/A
8:20 am63 °FPassing clouds.8 mph42%30.12 "HgN/A
7:50 am61 °FPassing clouds.9 mph45%30.12 "HgN/A
7:20 am59 °FSunny.9 mph48%30.12 "Hg10 mi
6:50 am59 °FSunny.9 mph45%30.12 "Hg10 mi
6:20 am57 °FPassing clouds.7 mph51%30.12 "HgN/A
5:20 am55 °FSunny.6 mph55%30.12 "Hg10 mi
4:50 am57 °FClear.6 mph51%30.12 "Hg10 mi
4:20 am57 °FClear.7 mph55%30.12 "Hg10 mi
3:50 am59 °FClear.7 mph48%30.12 "Hg10 mi
3:20 am59 °FClear.7 mph51%30.12 "Hg10 mi
Weather by CustomWeather, © 2024

See weather overview